YYAS weather

Yass Airport
New South Wales, Australia

Public forecast

Using degrees Celsius for public forecast. Weather courtesy of forecast.io.

Closest aviation weather report (METAR) to Yass Airport

Closest report is Canberra International Airport, 29.6 nm (54.8 km) SSE. Retrieved 2019/10/22 15:30 UTC (7 minutes ago):

YSCB 221530Z AUTO 11005KT 9999 // NCD 09/09 Q1024 RF000/0000

Closest aviation forecast (TAF) to Yass Airport

Forecast is more than 6 hours old.

Closest forecast is Canberra International Airport, 29.6 nm (54.8 km) SSE. Retrieved 2019/10/22 06:00 UTC (10 hours ago):

TAF YSCB 220512Z 2206/2306 31012KT CAVOK FM220800 08008KT 9999 FEW020 BECMG 2210/2212 11005KT 9999 SCT010 BKN015 FM222300 32008KT CAVOK FM230100 32014KT CAVOK